Terminal Aerodrome Forecast
Issued by NWS Charleston, WV

Current Version | Previous Version | Graphics & Text | Print | Product List | Glossary On
Versions: 1 2 3 4 5 6 7 8 9 10 11 12 13 14 15 16 17 18 19 20 21 22 23 24 25
000
FTUS41 KRLX 261100
TAFEKN
TAF
KEKN 261132Z 2612/2712 00000KT 1/4SM FG VV001
     FM261300 00000KT 4SM BR BKN001
     FM261400 00000KT P6SM SKC
     FM261800 00000KT P6SM FEW050
     FM270700 00000KT 6SM BR FEW001
     FM270800 00000KT 1SM BR SCT001
     FM270900 00000KT 1/4SM FG VV001=

USA.gov is the U.S. government's official web portal to all federal, state and local government web resources and services.